createdAt,value
2023-07-02T00:01:46.225Z,14.57
2023-07-02T00:04:16.336Z,14.66
2023-07-02T00:06:48.555Z,14.52
2023-07-02T00:09:15.454Z,14.54
2023-07-02T00:11:46.371Z,14.42
2023-07-02T00:14:12.833Z,14.46
2023-07-02T00:16:41.521Z,14.53
2023-07-02T00:19:07.460Z,14.42
2023-07-02T00:21:33.635Z,14.52
2023-07-02T00:24:00.649Z,14.64
2023-07-02T00:26:28.036Z,14.69
2023-07-02T00:28:54.913Z,14.76
2023-07-02T00:31:20.922Z,14.66
2023-07-02T00:33:46.909Z,14.75
2023-07-02T00:36:17.031Z,14.65
2023-07-02T00:38:45.077Z,14.54
2023-07-02T00:41:11.702Z,14.56
2023-07-02T00:43:43.928Z,14.64
2023-07-02T00:46:23.185Z,14.67
2023-07-02T00:48:50.061Z,14.63
2023-07-02T00:51:20.780Z,14.60
2023-07-02T00:53:48.624Z,14.58
2023-07-02T00:56:15.247Z,14.60
2023-07-02T00:58:48.624Z,14.58
2023-07-02T01:01:19.046Z,14.70
2023-07-02T01:04:00.058Z,14.59
2023-07-02T01:06:36.336Z,14.64
2023-07-02T01:09:05.104Z,14.64
2023-07-02T01:11:32.953Z,14.70
2023-07-02T01:14:11.636Z,14.47
2023-07-02T01:16:39.511Z,14.41
2023-07-02T01:19:13.762Z,14.45
2023-07-02T01:21:39.884Z,14.47
2023-07-02T01:24:06.540Z,14.32
2023-07-02T01:26:37.456Z,14.26
2023-07-02T01:29:20.491Z,14.29
2023-07-02T01:31:47.428Z,14.30
2023-07-02T01:34:13.845Z,14.28
2023-07-02T01:36:40.402Z,14.28
2023-07-02T01:39:06.788Z,14.30
2023-07-02T01:41:41.773Z,14.17
2023-07-02T01:44:07.605Z,14.14
2023-07-02T01:46:33.505Z,14.22
2023-07-02T01:48:59.370Z,14.22
2023-07-02T01:51:25.615Z,14.18
2023-07-02T01:53:51.472Z,14.26
2023-07-02T01:56:17.375Z,14.05
2023-07-02T01:58:43.188Z,14.05
2023-07-02T02:01:09.091Z,14.16
2023-07-02T02:03:35.214Z,14.18
2023-07-02T02:06:01.243Z,14.18
2023-07-02T02:08:27.091Z,14.23
2023-07-02T02:10:52.868Z,14.12
2023-07-02T02:13:18.678Z,14.19
2023-07-02T02:15:44.585Z,14.18
2023-07-02T02:18:10.515Z,14.19
2023-07-02T02:20:46.581Z,14.15
2023-07-02T02:23:22.630Z,14.03
2023-07-02T02:25:48.444Z,14.02
2023-07-02T02:28:14.230Z,13.98
2023-07-02T02:30:40.056Z,13.97
2023-07-02T02:33:05.921Z,13.99
2023-07-02T02:35:31.762Z,13.79
2023-07-02T02:37:57.738Z,13.79
2023-07-02T02:40:24.502Z,13.87
2023-07-02T02:42:50.307Z,13.89
2023-07-02T02:45:16.147Z,13.89
2023-07-02T02:47:42.013Z,13.96
2023-07-02T02:50:09.917Z,13.78
2023-07-02T02:52:35.805Z,13.65
2023-07-02T02:55:01.664Z,13.80
2023-07-02T02:57:27.528Z,13.93
2023-07-02T02:59:53.399Z,13.93
2023-07-02T03:02:19.242Z,14.02
2023-07-02T03:04:45.703Z,13.98
2023-07-02T03:07:11.660Z,13.92
2023-07-02T03:09:37.675Z,13.82
2023-07-02T03:12:03.966Z,13.82
2023-07-02T03:14:29.880Z,13.96
2023-07-02T03:16:55.854Z,13.91
2023-07-02T03:19:22.285Z,13.83
2023-07-02T03:21:48.140Z,13.85
2023-07-02T03:24:14.008Z,13.84
2023-07-02T03:26:40.794Z,13.92
2023-07-02T03:29:07.107Z,13.74
2023-07-02T03:31:33.050Z,13.74
2023-07-02T03:34:02.470Z,13.72
2023-07-02T03:36:28.306Z,13.82
2023-07-02T03:38:54.060Z,13.77
2023-07-02T03:41:19.897Z,13.86
2023-07-02T03:43:45.735Z,13.89
2023-07-02T03:46:11.615Z,13.68
2023-07-02T03:48:37.483Z,13.67
2023-07-02T03:51:03.753Z,13.80
2023-07-02T03:53:29.560Z,13.70
2023-07-02T03:55:55.364Z,13.73
2023-07-02T03:58:21.200Z,13.70
2023-07-02T04:00:50.158Z,13.66
2023-07-02T04:03:17.028Z,13.75
2023-07-02T04:05:43.634Z,13.72
2023-07-02T04:08:09.461Z,13.79
2023-07-02T04:10:35.336Z,13.82
2023-07-02T04:13:01.136Z,13.76
2023-07-02T04:15:27.053Z,13.74
2023-07-02T04:17:53.358Z,13.74
2023-07-02T04:20:20.340Z,13.71
2023-07-02T04:22:46.626Z,13.70
2023-07-02T04:25:31.024Z,13.67
2023-07-02T04:28:02.418Z,13.65
2023-07-02T04:30:28.229Z,13.46
2023-07-02T04:32:54.073Z,13.44
2023-07-02T04:35:20.029Z,13.62
2023-07-02T04:37:46.142Z,13.61
2023-07-02T04:40:12.185Z,13.66
2023-07-02T04:42:47.251Z,13.45
2023-07-02T04:45:17.656Z,13.46
2023-07-02T04:47:44.570Z,13.58
2023-07-02T04:50:11.930Z,13.63
2023-07-02T04:52:39.147Z,13.64
2023-07-02T04:55:06.084Z,13.62
2023-07-02T04:57:32.006Z,13.72
2023-07-02T04:59:57.940Z,13.71
2023-07-02T05:02:23.806Z,13.62
2023-07-02T05:04:49.706Z,13.58
2023-07-02T05:07:18.689Z,13.55
2023-07-02T05:09:44.469Z,13.36
2023-07-02T05:12:10.430Z,13.51
2023-07-02T05:14:36.307Z,13.70
2023-07-02T05:17:02.411Z,13.70
2023-07-02T05:19:28.508Z,13.63
2023-07-02T05:21:54.315Z,13.54
2023-07-02T05:24:20.394Z,13.52
2023-07-02T05:26:46.756Z,13.59
2023-07-02T05:29:14.107Z,13.64
2023-07-02T05:31:40.185Z,13.65
2023-07-02T05:34:06.083Z,13.68
2023-07-02T05:36:31.886Z,13.78
2023-07-02T05:38:57.659Z,13.79
2023-07-02T05:41:23.773Z,13.84
2023-07-02T05:43:49.805Z,13.74
2023-07-02T05:46:15.764Z,13.86
2023-07-02T05:48:42.368Z,13.83
2023-07-02T05:51:08.488Z,13.87
2023-07-02T05:53:34.909Z,13.89
2023-07-02T05:56:00.744Z,13.94
2023-07-02T05:58:34.909Z,13.88
2023-07-02T06:01:06.252Z,13.95
2023-07-02T06:03:32.802Z,13.96
2023-07-02T06:05:58.801Z,14.00
2023-07-02T06:08:24.716Z,14.04
2023-07-02T06:10:50.964Z,14.04
2023-07-02T06:13:17.216Z,14.10
2023-07-02T06:15:43.572Z,14.07
2023-07-02T06:18:09.558Z,13.93
2023-07-02T06:20:35.447Z,13.98
2023-07-02T06:23:01.260Z,13.98
2023-07-02T06:25:27.246Z,14.14
2023-07-02T06:27:55.376Z,14.19
2023-07-02T06:30:30.205Z,14.25
2023-07-02T06:32:56.317Z,14.24
2023-07-02T06:35:22.264Z,14.43
2023-07-02T06:37:48.380Z,14.30
2023-07-02T06:40:14.703Z,14.34
2023-07-02T06:42:40.955Z,14.58
2023-07-02T06:45:08.358Z,14.56
2023-07-02T06:47:34.205Z,14.65
2023-07-02T06:50:00.356Z,14.44
2023-07-02T06:52:26.216Z,14.47
2023-07-02T06:54:52.015Z,14.39
2023-07-02T06:57:17.822Z,14.55
2023-07-02T06:59:43.606Z,14.35
2023-07-02T07:02:09.900Z,14.34
2023-07-02T07:04:35.766Z,14.45
2023-07-02T07:07:03.217Z,14.50
2023-07-02T07:09:32.195Z,14.62
2023-07-02T07:11:58.189Z,14.70
2023-07-02T07:14:24.080Z,14.98
2023-07-02T07:16:50.766Z,14.95
2023-07-02T07:19:17.143Z,14.97
2023-07-02T07:21:44.031Z,14.81
2023-07-02T07:24:10.005Z,14.81
2023-07-02T07:26:35.823Z,15.05
2023-07-02T07:29:01.801Z,14.98
2023-07-02T07:31:27.655Z,14.97
2023-07-02T07:33:53.474Z,15.17
2023-07-02T07:36:19.837Z,14.99
2023-07-02T07:38:45.629Z,15.05
2023-07-02T07:41:11.668Z,15.03
2023-07-02T07:43:37.585Z,15.17
2023-07-02T07:46:03.537Z,15.10
2023-07-02T07:48:29.506Z,15.04
2023-07-02T07:50:55.275Z,15.13
2023-07-02T07:53:21.191Z,15.13
2023-07-02T07:55:47.168Z,15.26
2023-07-02T07:58:13.148Z,15.38
2023-07-02T08:00:38.980Z,15.32
2023-07-02T08:03:04.914Z,15.38
2023-07-02T08:05:31.412Z,15.27
2023-07-02T08:07:58.347Z,15.51
2023-07-02T08:10:25.379Z,15.60
2023-07-02T08:12:52.788Z,15.78
2023-07-02T08:15:19.045Z,15.53
2023-07-02T08:17:45.275Z,15.50
2023-07-02T08:20:12.153Z,15.45
2023-07-02T08:22:39.240Z,15.37
2023-07-02T08:25:05.988Z,15.47
2023-07-02T08:27:32.078Z,15.74
2023-07-02T08:29:57.904Z,15.81
2023-07-02T08:32:24.754Z,15.71
2023-07-02T08:34:53.757Z,15.78
2023-07-02T08:37:21.187Z,15.81
2023-07-02T08:39:49.053Z,15.80
2023-07-02T08:42:17.272Z,16.05
2023-07-02T08:44:47.024Z,16.31
2023-07-02T08:47:13.157Z,16.38
2023-07-02T08:49:40.272Z,16.52
2023-07-02T08:52:06.669Z,16.27
2023-07-02T08:54:32.511Z,15.83
2023-07-02T08:56:58.518Z,15.93
2023-07-02T08:59:24.828Z,15.95
2023-07-02T09:01:53.823Z,15.96
2023-07-02T09:04:26.685Z,15.94
2023-07-02T09:07:09.860Z,15.78
2023-07-02T09:09:49.895Z,15.90
2023-07-02T09:12:25.792Z,16.13
2023-07-02T09:14:59.093Z,16.34
2023-07-02T09:17:36.387Z,16.00
2023-07-02T09:20:06.155Z,16.14
2023-07-02T09:22:32.053Z,16.18
2023-07-02T09:24:59.570Z,16.23
2023-07-02T09:27:42.543Z,16.03
2023-07-02T09:30:10.536Z,15.66
2023-07-02T09:32:36.736Z,15.46
2023-07-02T09:35:02.970Z,15.75
2023-07-02T09:37:29.237Z,15.75
2023-07-02T09:39:56.541Z,15.95
2023-07-02T09:42:24.434Z,16.13
2023-07-02T09:44:52.691Z,16.18
2023-07-02T09:47:19.688Z,16.09
2023-07-02T09:49:58.388Z,16.06
2023-07-02T09:52:25.079Z,16.00
2023-07-02T09:54:50.935Z,15.96
2023-07-02T09:57:16.858Z,16.04
2023-07-02T09:59:43.024Z,16.07
2023-07-02T10:02:13.301Z,16.07
2023-07-02T10:04:43.986Z,16.38
2023-07-02T10:07:10.925Z,16.43
2023-07-02T10:09:38.018Z,16.54
2023-07-02T10:12:17.900Z,16.31
2023-07-02T10:14:44.790Z,16.50
2023-07-02T10:17:10.883Z,16.65
2023-07-02T10:19:36.743Z,16.57
2023-07-02T10:22:04.631Z,16.73
2023-07-02T10:24:30.990Z,16.73
2023-07-02T10:27:01.739Z,16.34
2023-07-02T10:29:28.989Z,16.22
2023-07-02T10:31:56.773Z,16.30
2023-07-02T10:34:33.701Z,16.14
2023-07-02T10:37:01.645Z,15.89
2023-07-02T10:39:30.117Z,15.95
2023-07-02T10:42:09.493Z,15.27
2023-07-02T10:44:46.605Z,15.29
2023-07-02T10:47:12.436Z,15.31
2023-07-02T10:49:38.256Z,15.40
2023-07-02T10:52:04.843Z,15.57
2023-07-02T10:54:45.347Z,15.99
2023-07-02T10:57:15.510Z,16.01
2023-07-02T10:59:41.414Z,16.15
2023-07-02T11:02:08.759Z,16.48
2023-07-02T11:04:36.032Z,16.13
2023-07-02T11:07:01.990Z,16.08
2023-07-02T11:09:28.003Z,16.01
2023-07-02T11:11:56.136Z,15.75
2023-07-02T11:14:35.588Z,15.72
2023-07-02T11:17:06.651Z,15.54
2023-07-02T11:19:36.601Z,15.51
2023-07-02T11:22:03.372Z,16.00
2023-07-02T11:24:34.828Z,16.38
2023-07-02T11:27:02.328Z,17.27
2023-07-02T11:29:32.014Z,17.88
2023-07-02T11:32:11.745Z,17.47
2023-07-02T11:34:39.290Z,16.83
2023-07-02T11:37:05.887Z,16.65
2023-07-02T11:39:32.354Z,16.26
2023-07-02T11:41:58.603Z,15.95
2023-07-02T11:44:24.514Z,15.62
2023-07-02T11:46:50.687Z,15.59
2023-07-02T11:49:16.626Z,15.59
2023-07-02T11:51:48.740Z,15.52
2023-07-02T11:54:16.158Z,15.39
2023-07-02T11:56:43.169Z,15.12
2023-07-02T11:59:09.320Z,14.95
2023-07-02T12:01:35.119Z,14.94
2023-07-02T12:04:01.106Z,14.84
2023-07-02T12:06:26.976Z,14.95
2023-07-02T12:08:52.792Z,15.16
2023-07-02T12:11:18.654Z,15.63
2023-07-02T12:13:44.498Z,16.04
2023-07-02T12:16:10.336Z,16.37
2023-07-02T12:18:36.227Z,16.57
2023-07-02T12:21:02.057Z,16.51
2023-07-02T12:23:27.967Z,16.35
2023-07-02T12:25:53.736Z,16.30
2023-07-02T12:28:19.577Z,16.20
2023-07-02T12:30:45.500Z,16.14
2023-07-02T12:33:11.295Z,16.56
2023-07-02T12:35:37.208Z,16.44
2023-07-02T12:38:08.473Z,15.94
2023-07-02T12:40:34.300Z,15.81
2023-07-02T12:43:00.306Z,16.35
2023-07-02T12:45:26.260Z,17.13
2023-07-02T12:47:52.198Z,17.33
2023-07-02T12:50:18.196Z,17.35
2023-07-02T12:52:44.238Z,17.27
2023-07-02T12:55:10.104Z,17.55
2023-07-02T12:57:35.989Z,18.21
2023-07-02T13:00:02.688Z,18.59
2023-07-02T13:02:28.616Z,18.72
2023-07-02T13:04:54.548Z,18.55
2023-07-02T13:07:20.526Z,18.81
2023-07-02T13:09:46.380Z,19.62
2023-07-02T13:12:12.598Z,19.92
2023-07-02T13:14:38.604Z,19.62
2023-07-02T13:17:05.651Z,18.86
2023-07-02T13:19:32.671Z,18.13
2023-07-02T13:21:58.496Z,17.78
2023-07-02T13:24:24.535Z,17.91
2023-07-02T13:26:50.994Z,18.06
2023-07-02T13:29:17.054Z,18.80
2023-07-02T13:31:42.946Z,19.27
2023-07-02T13:34:08.788Z,19.24
2023-07-02T13:36:34.672Z,19.18
2023-07-02T13:39:00.534Z,18.60
2023-07-02T13:41:26.999Z,18.56
2023-07-02T13:43:52.864Z,18.54
2023-07-02T13:46:18.679Z,18.40
2023-07-02T13:48:44.562Z,18.22
2023-07-02T13:51:10.381Z,18.33
2023-07-02T13:53:36.437Z,18.74
2023-07-02T13:56:02.317Z,18.70
2023-07-02T13:58:45.442Z,18.67
2023-07-02T14:01:11.214Z,19.11
2023-07-02T14:03:37.146Z,19.22
2023-07-02T14:06:03.028Z,19.64
2023-07-02T14:08:28.840Z,20.10
2023-07-02T14:10:54.662Z,19.91
2023-07-02T14:13:20.478Z,19.66
2023-07-02T14:15:46.511Z,19.15
2023-07-02T14:18:12.373Z,18.77
2023-07-02T14:20:38.182Z,18.67
2023-07-02T14:23:04.016Z,19.22
2023-07-02T14:25:41.415Z,19.60
2023-07-02T14:28:09.140Z,19.40
2023-07-02T14:30:35.335Z,18.89
2023-07-02T14:33:01.510Z,19.02
2023-07-02T14:35:28.420Z,19.58
2023-07-02T14:37:54.677Z,19.88
2023-07-02T14:40:20.866Z,20.00
2023-07-02T14:42:47.067Z,20.17
2023-07-02T14:45:12.996Z,20.50
2023-07-02T14:47:39.189Z,20.33
2023-07-02T14:50:06.056Z,20.13
2023-07-02T14:52:32.048Z,20.18
2023-07-02T14:54:59.760Z,20.47
2023-07-02T14:57:26.380Z,19.77
2023-07-02T14:59:52.497Z,19.39
2023-07-02T15:02:19.257Z,19.76
2023-07-02T15:04:45.526Z,19.94
2023-07-02T15:07:11.599Z,20.25
2023-07-02T15:09:38.368Z,19.99
2023-07-02T15:12:04.245Z,19.39
2023-07-02T15:14:30.085Z,19.13
2023-07-02T15:16:55.916Z,18.91
2023-07-02T15:19:24.094Z,18.74
2023-07-02T15:21:51.448Z,18.80
2023-07-02T15:24:17.466Z,19.05
2023-07-02T15:26:43.565Z,19.17
2023-07-02T15:29:09.616Z,19.55
2023-07-02T15:31:37.808Z,20.04
2023-07-02T15:34:03.660Z,19.74
2023-07-02T15:36:35.869Z,19.46
2023-07-02T15:39:03.748Z,19.45
2023-07-02T15:41:29.601Z,19.92
2023-07-02T15:44:03.449Z,19.52
2023-07-02T15:46:29.868Z,18.99
2023-07-02T15:48:55.752Z,18.89
2023-07-02T15:51:23.711Z,19.05
2023-07-02T15:53:51.524Z,18.87
2023-07-02T15:56:17.612Z,18.72
2023-07-02T15:58:43.419Z,18.73
2023-07-02T16:01:12.112Z,19.17
2023-07-02T16:03:38.177Z,19.34
2023-07-02T16:06:04.802Z,19.86
2023-07-02T16:08:30.928Z,20.02
2023-07-02T16:10:56.705Z,19.78
2023-07-02T16:13:22.573Z,19.12
2023-07-02T16:15:48.753Z,18.84
2023-07-02T16:18:15.295Z,19.01
2023-07-02T16:20:41.077Z,19.27
2023-07-02T16:23:08.707Z,19.55
2023-07-02T16:25:35.030Z,19.70
2023-07-02T16:28:02.329Z,19.54
2023-07-02T16:30:28.347Z,19.27
2023-07-02T16:32:54.422Z,19.23
2023-07-02T16:35:20.574Z,18.95
2023-07-02T16:37:46.432Z,19.06
2023-07-02T16:40:12.399Z,19.61
2023-07-02T16:42:38.587Z,19.91
2023-07-02T16:45:06.121Z,19.75
2023-07-02T16:47:35.226Z,19.25
2023-07-02T16:50:03.084Z,19.15
2023-07-02T16:52:28.958Z,19.18
2023-07-02T16:54:55.289Z,19.54
2023-07-02T16:57:21.537Z,19.27
2023-07-02T16:59:51.410Z,19.24
2023-07-02T17:02:17.268Z,19.27
2023-07-02T17:04:43.110Z,19.10
2023-07-02T17:07:09.080Z,18.92
2023-07-02T17:09:39.696Z,19.04
2023-07-02T17:12:07.227Z,19.36
2023-07-02T17:14:36.638Z,19.35
2023-07-02T17:17:06.088Z,19.01
2023-07-02T17:19:34.871Z,19.00
2023-07-02T17:22:02.672Z,18.91
2023-07-02T17:24:32.815Z,19.01
2023-07-02T17:26:58.913Z,19.32
2023-07-02T17:29:25.815Z,19.14
2023-07-02T17:31:54.157Z,19.20
2023-07-02T17:34:22.511Z,19.48
2023-07-02T17:36:53.507Z,19.29
2023-07-02T17:39:19.464Z,19.22
2023-07-02T17:41:46.869Z,19.05
2023-07-02T17:44:14.327Z,18.83
2023-07-02T17:46:41.475Z,18.98
2023-07-02T17:49:08.116Z,18.79
2023-07-02T17:51:35.332Z,18.69
2023-07-02T17:54:02.417Z,18.59
2023-07-02T17:56:28.804Z,18.88
2023-07-02T17:58:54.839Z,19.02
2023-07-02T18:01:21.282Z,18.65
2023-07-02T18:03:47.608Z,18.43
2023-07-02T18:06:13.499Z,18.42
2023-07-02T18:08:39.406Z,18.40
2023-07-02T18:11:05.341Z,18.46
2023-07-02T18:13:31.153Z,18.24
2023-07-02T18:15:57.110Z,18.07
2023-07-02T18:18:22.969Z,18.09
2023-07-02T18:20:49.859Z,18.18
2023-07-02T18:23:16.832Z,18.36
2023-07-02T18:25:42.788Z,18.41
2023-07-02T18:28:11.260Z,18.45
2023-07-02T18:30:42.826Z,18.20
2023-07-02T18:33:08.690Z,18.18
2023-07-02T18:35:36.768Z,18.01
2023-07-02T18:38:03.844Z,17.62
2023-07-02T18:40:30.269Z,17.70
2023-07-02T18:42:56.609Z,17.86
2023-07-02T18:45:23.107Z,17.75
2023-07-02T18:47:49.661Z,17.68
2023-07-02T18:50:16.542Z,17.67
2023-07-02T18:52:43.665Z,17.65
2023-07-02T18:55:10.363Z,17.64
2023-07-02T18:57:36.777Z,17.46
2023-07-02T19:00:05.729Z,17.46
2023-07-02T19:02:33.340Z,17.43
2023-07-02T19:04:59.929Z,17.33
2023-07-02T19:07:26.997Z,17.27
2023-07-02T19:09:55.219Z,17.15
2023-07-02T19:12:24.008Z,17.19
2023-07-02T19:14:50.093Z,17.22
2023-07-02T19:17:18.080Z,17.19
2023-07-02T19:19:44.001Z,17.17
2023-07-02T19:22:12.161Z,17.12
2023-07-02T19:24:38.412Z,17.16
2023-07-02T19:27:06.882Z,17.20
2023-07-02T19:29:32.766Z,17.10
2023-07-02T19:32:00.082Z,17.17
2023-07-02T19:34:28.902Z,17.06
2023-07-02T19:36:55.126Z,17.13
2023-07-02T19:39:21.474Z,17.05
2023-07-02T19:41:47.641Z,17.14
2023-07-02T19:44:15.707Z,17.08
2023-07-02T19:46:42.672Z,16.94
2023-07-02T19:49:10.280Z,16.75
2023-07-02T19:51:36.924Z,16.93
2023-07-02T19:54:06.353Z,16.82
2023-07-02T19:56:33.628Z,16.81
2023-07-02T19:58:59.532Z,16.80
2023-07-02T20:01:25.551Z,16.81
2023-07-02T20:03:52.184Z,16.62
2023-07-02T20:06:18.952Z,16.65
2023-07-02T20:08:44.779Z,16.60
2023-07-02T20:11:11.009Z,16.70
2023-07-02T20:13:37.272Z,16.77
2023-07-02T20:16:04.451Z,16.78
2023-07-02T20:18:34.275Z,16.74
2023-07-02T20:21:01.800Z,16.67
2023-07-02T20:23:27.614Z,16.66
2023-07-02T20:25:56.468Z,16.67
2023-07-02T20:28:22.507Z,16.57
2023-07-02T20:30:48.368Z,16.63
2023-07-02T20:33:14.295Z,16.53
2023-07-02T20:35:41.695Z,16.62
2023-07-02T20:38:08.751Z,16.60
2023-07-02T20:40:34.513Z,16.60
2023-07-02T20:43:00.353Z,16.51
2023-07-02T20:45:30.615Z,16.55
2023-07-02T20:48:00.473Z,16.62
2023-07-02T20:50:27.784Z,16.39
2023-07-02T20:52:54.118Z,16.36
2023-07-02T20:55:20.438Z,16.42
2023-07-02T20:57:46.303Z,16.28
2023-07-02T21:00:12.770Z,16.40
2023-07-02T21:02:40.143Z,16.42
2023-07-02T21:05:06.574Z,16.36
2023-07-02T21:07:32.418Z,16.30
2023-07-02T21:09:58.283Z,16.25
2023-07-02T21:12:24.167Z,16.12
2023-07-02T21:14:54.415Z,15.98
2023-07-02T21:17:22.849Z,15.99
2023-07-02T21:19:48.696Z,16.01
2023-07-02T21:22:14.554Z,16.06
2023-07-02T21:24:40.347Z,16.08
2023-07-02T21:27:06.786Z,16.07
2023-07-02T21:29:32.590Z,16.15
2023-07-02T21:31:58.494Z,16.10
2023-07-02T21:34:24.523Z,15.89
2023-07-02T21:36:51.048Z,15.87
2023-07-02T21:39:16.972Z,15.93
2023-07-02T21:41:42.816Z,15.73
2023-07-02T21:44:08.628Z,15.83
2023-07-02T21:46:34.620Z,15.80
2023-07-02T21:49:00.893Z,15.75
2023-07-02T21:51:26.708Z,15.70
2023-07-02T21:53:52.514Z,15.69
2023-07-02T21:56:21.416Z,15.58
2023-07-02T21:58:48.648Z,15.53
2023-07-02T22:01:15.709Z,15.60
2023-07-02T22:03:41.913Z,15.59
2023-07-02T22:06:08.436Z,15.58
2023-07-02T22:08:34.499Z,15.44
2023-07-02T22:11:12.804Z,15.40
2023-07-02T22:13:46.401Z,15.39
2023-07-02T22:16:12.197Z,15.40
2023-07-02T22:18:38.029Z,15.48
2023-07-02T22:21:07.716Z,15.41
2023-07-02T22:23:33.979Z,15.40
2023-07-02T22:25:59.881Z,15.31
2023-07-02T22:28:25.659Z,15.26
2023-07-02T22:30:51.420Z,15.26
2023-07-02T22:33:17.211Z,15.23
2023-07-02T22:35:43.084Z,15.25
2023-07-02T22:38:10.814Z,15.16
2023-07-02T22:40:36.640Z,15.03
2023-07-02T22:43:02.685Z,15.09
2023-07-02T22:45:29.395Z,15.13
2023-07-02T22:47:55.405Z,15.08
2023-07-02T22:50:21.432Z,15.08
2023-07-02T22:52:50.357Z,15.01
2023-07-02T22:55:16.268Z,14.99
2023-07-02T22:57:43.863Z,14.93
2023-07-02T23:00:13.829Z,14.95
2023-07-02T23:02:48.759Z,14.84
2023-07-02T23:05:17.884Z,14.85
2023-07-02T23:07:45.382Z,14.86
2023-07-02T23:10:15.993Z,14.76
2023-07-02T23:12:43.712Z,14.72
2023-07-02T23:15:14.595Z,14.74
2023-07-02T23:17:52.189Z,14.77
2023-07-02T23:20:18.922Z,14.75
2023-07-02T23:22:47.792Z,14.68
2023-07-02T23:25:18.057Z,14.75
2023-07-02T23:27:47.024Z,14.49
2023-07-02T23:30:17.344Z,14.57
2023-07-02T23:32:44.986Z,14.58
2023-07-02T23:35:12.985Z,14.35
2023-07-02T23:37:41.989Z,14.32
2023-07-02T23:40:10.314Z,14.27
2023-07-02T23:42:37.181Z,14.36
2023-07-02T23:45:08.541Z,14.10
2023-07-02T23:47:34.685Z,14.05
2023-07-02T23:50:00.954Z,14.08
2023-07-02T23:52:27.262Z,13.93
2023-07-02T23:54:53.744Z,14.03
2023-07-02T23:57:20.282Z,13.92
2023-07-02T23:59:46.146Z,13.63
